Ever Lissome — 2HDG3 — position and weather

sailwx.info

Track history (hours):
 
Tides and Currents Weather Stations Pressure Air Temp Water Temp Dewpoint Dewpoint Depression Visibility Wind Speed Wind Dir Waves Ship Positions

Ever Lissome

Last reported at 2018-Jul-17 18:00 UTC. Time now 2018-Jul-18 02:57 UTC.
Position N 44°06' E 175°24'.

Length 335 m; draft 13.3 m.

Type: Cargo ship. MMSI: 235077673.

Wind from 210 at 17 knots

Barometer 1028.7 mb
Air temperature 13.0 ° C
Dewpoint 13.0 ° C
Water temperature 12.0 ° C

Date/timePositionNaut miles runAvg speedWind from/ knotsBaromVisibWave heightAir tempDewpointWater temp
2018-Jul-17 18:00N 44°06' E 175°24'48420.2 210 / 171028.7 13.013.012.0
2018-Jul-16 18:00N 42°36' E 164°30'23519.6 200 / 241021.7 0.0 15.015.014.0
2018-Jul-16 06:00N 41°36' E 159°24'23519.6 180 / 191018.7 17.017.016.0
2018-Jul-15 18:00N 40°18' E 154°30'76020.1 150 / 141016.2 2.2 16.915.415.0
2018-Jul-14 04:12N 34°48' E 140°06'1322.8
2018-Jul-14 03:37N 34°43' E 139°51'422.4
2018-Jul-14 03:26N 34°43' E 139°47'1222.9
2018-Jul-14 02:55N 34°39' E 139°32'4022.6
2018-Jul-14 01:07N 34°23' E 138°47'521.5
2018-Jul-14 00:54N 34°21' E 138°42'1521.6
2018-Jul-14 00:11N 34°14' E 138°26'421.5
2018-Jul-13 23:59N 34°12' E 138°21'1021.1
2018-Jul-13 23:30N 34°07' E 138°10'1020.5
2018-Jul-13 23:00N 34°02' E 137°59'1520.5
2018-Jul-13 22:16N 33°56' E 137°43'620.4
2018-Jul-13 22:00N 33°53' E 137°37'46721.2
2018-Jul-13 00:00N 30°06' E 129°36'68819.3 040 / 101013.6 5.4 28.028.027.0
2018-Jul-11 12:24N 22°16' E 120°16'717.6
2018-Jul-11 12:01N 22°23' E 120°14'611.6
2018-Jul-11 11:31N 22°28' E 120°13'5 9.2
2018-Jul-11 11:00N 22°33' E 120°14'5 6.3
2018-Jul-11 10:13N 22°33' E 120°20'0 0.9
2018-Jul-11 09:59N 22°33' E 120°20'1 1.8
2018-Jul-11 09:21N 22°33' E 120°19'0 0.0
2018-Jul-11 08:57N 22°33' E 120°19'0 0.0
2018-Jul-11 08:27N 22°33' E 120°19'0 0.0
2018-Jul-11 07:51N 22°33' E 120°19'0 0.0
2018-Jul-11 07:27N 22°33' E 120°19'0 0.0
2018-Jul-11 06:57N 22°33' E 120°19'0 0.0
2018-Jul-11 05:57N 22°33' E 120°19'0 0.0
2018-Jul-11 05:15N 22°33' E 120°19'0 0.0
2018-Jul-11 04:51N 22°33' E 120°19'0 0.0
2018-Jul-11 04:27N 22°33' E 120°19'0 0.0
2018-Jul-11 03:57N 22°33' E 120°19'0 0.0
2018-Jul-11 03:15N 22°33' E 120°19'0 0.0
2018-Jul-11 02:03N 22°33' E 120°19'0 0.1
2018-Jul-11 01:57N 22°33' E 120°19'0 0.0
2018-Jul-11 01:15N 22°33' E 120°19'0 0.0
2018-Jul-11 00:45N 22°33' E 120°19'0 0.0
2018-Jul-10 13:09N 22°33' E 120°19'0 0.1
2018-Jul-10 12:51N 22°33' E 120°19'0 0.1
2018-Jul-10 12:27N 22°33' E 120°19'0 0.0
2018-Jul-10 12:00N 22°33' E 120°19'0 0.7
2018-Jul-10 11:30N 22°33' E 120°19'3 6.1
2018-Jul-10 11:00N 22°32' E 120°16'3 5.5
2018-Jul-10 10:30N 22°31' E 120°13'4 7.5
2018-Jul-10 10:00N 22°29' E 120°09'612.1
2018-Jul-10 09:30N 22°26' E 120°05'713.2
2018-Jul-10 09:00N 22°21' E 119°59'612.5
2018-Jul-10 08:30N 22°17' E 119°54'1 1.1
2018-Jul-10 07:21N 22°16' E 119°53'0 0.6
2018-Jul-10 07:00N 22°16' E 119°53'1 0.8
2018-Jul-10 06:13N 22°17' E 119°53'0 0.9
2018-Jul-10 05:49N 22°17' E 119°53'0 1.1
2018-Jul-10 05:29N 22°18' E 119°53'1 1.8
2018-Jul-10 05:00N 22°18' E 119°52'2 3.0
2018-Jul-10 04:30N 22°20' E 119°51'4 7.7
2018-Jul-10 04:00N 22°23' E 119°49'814.9
2018-Jul-10 03:29N 22°29' E 119°44'814.8
2018-Jul-10 02:56N 22°29' E 119°35'714.9
2018-Jul-10 02:29N 22°29' E 119°28'  
2018-Jul-07 22:11N 22°19' E 114°07'0 1.2
2018-Jul-07 21:49N 22°19' E 114°07'0 0.0
2018-Jul-07 20:50N 22°19' E 114°07'0 0.0
2018-Jul-07 20:29N 22°19' E 114°07'  
Track history (hours):
 
Tides and Currents Weather Stations Pressure Air Temp Water Temp Dewpoint Dewpoint Depression Visibility Wind Speed Wind Dir Waves Ship Positions

Ever Lissome

Last reported at 2018-Jul-17 18:00 UTC. Time now 2018-Jul-18 02:57 UTC.
Position N 44°06' E 175°24'.

Length 335 m; draft 13.3 m.

Type: Cargo ship. MMSI: 235077673.

Wind from 210 at 17 knots

Barometer 1028.7 mb
Air temperature 13.0 ° C
Dewpoint 13.0 ° C
Water temperature 12.0 ° C

Date/timePositionNaut miles runAvg speedWind from/ knotsBaromVisibWave heightAir tempDewpointWater temp
2018-Jul-17 18:00N 44°06' E 175°24'48420.2 210 / 171028.7 13.013.012.0
2018-Jul-16 18:00N 42°36' E 164°30'23519.6 200 / 241021.7 0.0 15.015.014.0
2018-Jul-16 06:00N 41°36' E 159°24'23519.6 180 / 191018.7 17.017.016.0
2018-Jul-15 18:00N 40°18' E 154°30'76020.1 150 / 141016.2 2.2 16.915.415.0
2018-Jul-14 04:12N 34°48' E 140°06'1322.8
2018-Jul-14 03:37N 34°43' E 139°51'422.4
2018-Jul-14 03:26N 34°43' E 139°47'1222.9
2018-Jul-14 02:55N 34°39' E 139°32'4022.6
2018-Jul-14 01:07N 34°23' E 138°47'521.5
2018-Jul-14 00:54N 34°21' E 138°42'1521.6
2018-Jul-14 00:11N 34°14' E 138°26'421.5
2018-Jul-13 23:59N 34°12' E 138°21'1021.1
2018-Jul-13 23:30N 34°07' E 138°10'1020.5
2018-Jul-13 23:00N 34°02' E 137°59'1520.5
2018-Jul-13 22:16N 33°56' E 137°43'620.4
2018-Jul-13 22:00N 33°53' E 137°37'46721.2
2018-Jul-13 00:00N 30°06' E 129°36'68819.3 040 / 101013.6 5.4 28.028.027.0
2018-Jul-11 12:24N 22°16' E 120°16'717.6
2018-Jul-11 12:01N 22°23' E 120°14'611.6
2018-Jul-11 11:31N 22°28' E 120°13'5 9.2
2018-Jul-11 11:00N 22°33' E 120°14'5 6.3
2018-Jul-11 10:13N 22°33' E 120°20'0 0.9
2018-Jul-11 09:59N 22°33' E 120°20'1 1.8
2018-Jul-11 09:21N 22°33' E 120°19'0 0.0
2018-Jul-11 08:57N 22°33' E 120°19'0 0.0
2018-Jul-11 08:27N 22°33' E 120°19'0 0.0
2018-Jul-11 07:51N 22°33' E 120°19'0 0.0
2018-Jul-11 07:27N 22°33' E 120°19'0 0.0
2018-Jul-11 06:57N 22°33' E 120°19'0 0.0
2018-Jul-11 05:57N 22°33' E 120°19'0 0.0
2018-Jul-11 05:15N 22°33' E 120°19'0 0.0
2018-Jul-11 04:51N 22°33' E 120°19'0 0.0
2018-Jul-11 04:27N 22°33' E 120°19'0 0.0
2018-Jul-11 03:57N 22°33' E 120°19'0 0.0
2018-Jul-11 03:15N 22°33' E 120°19'0 0.0
2018-Jul-11 02:03N 22°33' E 120°19'0 0.1
2018-Jul-11 01:57N 22°33' E 120°19'0 0.0
2018-Jul-11 01:15N 22°33' E 120°19'0 0.0
2018-Jul-11 00:45N 22°33' E 120°19'0 0.0
2018-Jul-10 13:09N 22°33' E 120°19'0 0.1
2018-Jul-10 12:51N 22°33' E 120°19'0 0.1
2018-Jul-10 12:27N 22°33' E 120°19'0 0.0
2018-Jul-10 12:00N 22°33' E 120°19'0 0.7
2018-Jul-10 11:30N 22°33' E 120°19'3 6.1
2018-Jul-10 11:00N 22°32' E 120°16'3 5.5
2018-Jul-10 10:30N 22°31' E 120°13'4 7.5
2018-Jul-10 10:00N 22°29' E 120°09'612.1
2018-Jul-10 09:30N 22°26' E 120°05'713.2
2018-Jul-10 09:00N 22°21' E 119°59'612.5
2018-Jul-10 08:30N 22°17' E 119°54'1 1.1
2018-Jul-10 07:21N 22°16' E 119°53'0 0.6
2018-Jul-10 07:00N 22°16' E 119°53'1 0.8
2018-Jul-10 06:13N 22°17' E 119°53'0 0.9
2018-Jul-10 05:49N 22°17' E 119°53'0 1.1
2018-Jul-10 05:29N 22°18' E 119°53'1 1.8
2018-Jul-10 05:00N 22°18' E 119°52'2 3.0
2018-Jul-10 04:30N 22°20' E 119°51'4 7.7
2018-Jul-10 04:00N 22°23' E 119°49'814.9
2018-Jul-10 03:29N 22°29' E 119°44'814.8
2018-Jul-10 02:56N 22°29' E 119°35'714.9
2018-Jul-10 02:29N 22°29' E 119°28'  
2018-Jul-07 22:11N 22°19' E 114°07'0 1.2
2018-Jul-07 21:49N 22°19' E 114°07'0 0.0
2018-Jul-07 20:50N 22°19' E 114°07'0 0.0
2018-Jul-07 20:29N 22°19' E 114°07'  

Dump ship's entire track history